Time;durP1;ratioP1;P1;durP2;ratioP2;P2;SDS_P1;SDS_P2;PMS_P1;PMS_P2;Temp;Humidity;BMP_temperature;BMP_pressure;BME280_temperature;BME280_humidity;BME280_pressure;Samples;Min_cycle;Max_cycle;Signal;HPM_P1;HPM_P2
2023/04/11 00:01:31;;;;;;;4.97;1.60;;;;;;;-148.88;100.00;75641.13;5056190;28;20063;-76
2023/04/11 00:03:58;;;;;;;5.10;3.08;;;;;;;-148.88;100.00;75651.28;5056307;28;20055;-76
2023/04/11 00:06:24;;;;;;;3.05;1.63;;;;;;;-148.88;100.00;75649.25;5056190;28;20502;-76
2023/04/11 00:08:50;;;;;;;3.70;1.65;;;;;;;-148.88;100.00;75637.06;5056372;28;20096;-76
2023/04/11 00:11:16;;;;;;;5.07;2.38;;;;;;;-148.88;100.00;75622.84;5054517;28;20162;-76
2023/04/11 00:13:42;;;;;;;4.53;3.13;;;;;;;-148.88;100.00;75624.88;5054782;28;20024;-76
2023/04/11 00:16:08;;;;;;;7.43;1.88;;;;;;;-148.88;100.00;75653.31;5054575;28;20024;-76
2023/04/11 00:18:36;;;;;;;4.53;1.23;;;;;;;-148.88;100.00;75651.28;5055867;28;20482;-76
2023/04/11 00:21:02;;;;;;;3.15;1.48;;;;;;;-148.88;100.00;75663.47;5054543;28;20029;-76
2023/04/11 00:23:28;;;;;;;3.53;1.20;;;;;;;-148.88;100.00;75647.22;5056307;28;20024;-76
2023/04/11 00:25:53;;;;;;;2.70;1.50;;;;;;;-148.88;100.00;75653.31;5055798;28;20051;-75
2023/04/11 00:28:19;;;;;;;3.80;2.15;;;;;;;-148.88;100.00;75645.19;5055742;28;20389;-76
2023/04/11 00:30:44;;;;;;;2.75;1.10;;;;;;;-148.88;100.00;75653.31;5054238;28;20400;-75
2023/04/11 00:33:09;;;;;;;6.80;1.15;;;;;;;-148.88;100.00;75635.03;5055387;28;20070;-76
2023/04/11 00:35:36;;;;;;;2.28;0.80;;;;;;;-148.88;100.00;75637.06;5054937;28;20477;-76
2023/04/11 00:38:02;;;;;;;5.32;1.38;;;;;;;-148.88;100.00;75637.06;5055552;28;20103;-75
2023/04/11 00:40:28;;;;;;;2.58;0.90;;;;;;;-148.88;100.00;75610.66;5054079;28;20478;-75
2023/04/11 00:42:54;;;;;;;2.97;0.90;;;;;;;-148.88;100.00;75630.97;5055945;28;20044;-75
2023/04/11 00:45:20;;;;;;;2.70;1.15;;;;;;;-148.88;100.00;75618.78;5054046;28;20028;-76
2023/04/11 00:47:45;;;;;;;3.78;0.60;;;;;;;-148.88;100.00;75614.72;5055399;28;20017;-76
2023/04/11 00:50:12;;;;;;;1.23;0.60;;;;;;;-148.88;100.00;75578.19;5055245;28;20033;-76
2023/04/11 00:52:39;;;;;;;2.90;0.55;;;;;;;-148.88;100.00;75624.88;5055260;28;20474;-75
2023/04/11 00:55:06;;;;;;;2.47;1.10;;;;;;;-148.88;100.00;75602.53;5055066;28;20029;-75
2023/04/11 00:57:32;;;;;;;2.13;0.77;;;;;;;-148.88;100.00;75604.56;5053751;28;20496;-75
2023/04/11 00:59:59;;;;;;;1.90;1.00;;;;;;;-148.88;100.00;75606.59;5055069;28;20021;-76
2023/04/11 01:02:25;;;;;;;2.38;0.70;;;;;;;-148.88;100.00;75606.59;5054951;28;20047;-75
2023/04/11 01:04:51;;;;;;;2.72;0.85;;;;;;;-148.88;100.00;75610.66;5053724;28;20024;-75
2023/04/11 01:07:18;;;;;;;4.75;1.10;;;;;;;-148.88;100.00;75610.66;5054948;28;20029;-75
2023/04/11 01:09:45;;;;;;;3.88;1.60;;;;;;;-148.88;100.00;75602.53;5054864;28;20390;-75
2023/04/11 01:12:12;;;;;;;3.83;1.00;;;;;;;-148.88;100.00;75578.19;5054838;28;20025;-75
2023/04/11 01:14:38;;;;;;;3.75;0.77;;;;;;;-148.88;100.00;75602.53;5054824;28;20032;-75
2023/04/11 01:17:06;;;;;;;2.70;1.38;;;;;;;-148.88;100.00;75624.88;5053389;28;20029;-75
2023/04/11 01:19:32;;;;;;;3.83;1.50;;;;;;;-148.88;100.00;75566.00;5053366;28;20124;-75
2023/04/11 01:21:58;;;;;;;2.08;1.05;;;;;;;-148.88;100.00;75582.22;5054628;28;20104;-75
2023/04/11 01:24:23;;;;;;;4.45;1.02;;;;;;;-148.88;100.00;75574.13;5053269;28;20470;-75
2023/04/11 01:26:49;;;;;;;6.40;1.92;;;;;;;-148.88;100.00;75598.47;5054854;28;20031;-75
2023/04/11 01:29:15;;;;;;;2.72;1.17;;;;;;;-148.88;100.00;75598.47;5054518;28;20046;-75
2023/04/11 01:31:40;;;;;;;4.50;1.10;;;;;;;-148.88;100.00;75606.59;5053126;28;20060;-75
2023/04/11 01:34:06;;;;;;;6.07;1.73;;;;;;;-148.88;100.00;75606.59;5054447;28;20025;-75
2023/04/11 01:36:31;;;;;;;2.88;1.25;;;;;;;-148.88;100.00;75614.72;5054660;28;20029;-75
2023/04/11 01:38:57;;;;;;;4.10;2.13;;;;;;;-148.88;100.00;75610.66;5054445;28;20394;-75
2023/04/11 01:41:25;;;;;;;6.63;1.70;;;;;;;-148.88;100.00;75610.66;5052947;28;20078;-76
2023/04/11 01:43:50;;;;;;;3.90;1.45;;;;;;;-148.88;100.00;75608.63;5052934;28;20032;-75
2023/04/11 01:46:16;;;;;;;5.25;1.65;;;;;;;-148.88;100.00;75610.66;5053125;28;20029;-75
2023/04/11 01:48:42;;;;;;;4.78;1.92;;;;;;;-148.88;100.00;75618.78;5054117;28;20103;-75
2023/04/11 01:51:07;;;;;;;6.20;2.40;;;;;;;-148.88;100.00;75614.72;5052905;28;20045;-75
2023/04/11 01:53:33;;;;;;;2.53;1.20;;;;;;;-148.88;100.00;75606.59;5052799;28;20020;-75
2023/04/11 01:55:58;;;;;;;8.02;1.20;;;;;;;-148.88;100.00;75592.38;5053983;28;20029;-76
2023/04/11 01:58:24;;;;;;;3.63;1.25;;;;;;;-148.88;100.00;75606.59;5052635;28;20099;-76
2023/04/11 02:00:49;;;;;;;4.32;1.95;;;;;;;-148.88;100.00;75616.75;5053923;28;20029;-76
2023/04/11 02:03:16;;;;;;;3.53;1.30;;;;;;;-148.88;100.00;75584.25;5052854;28;20033;-75
2023/04/11 02:05:41;;;;;;;5.80;2.47;;;;;;;-148.88;100.00;75586.31;5052507;28;20112;-75
2023/04/11 02:08:07;;;;;;;3.45;1.63;;;;;;;-148.88;100.00;75523.34;5053733;28;20531;-75
2023/04/11 02:10:32;;;;;;;6.38;1.73;;;;;;;-148.88;100.00;75505.06;5052442;28;20027;-76
2023/04/11 02:12:57;;;;;;;5.25;1.73;;;;;;;-148.88;100.00;75513.19;5053984;28;20039;-76
2023/04/11 02:15:24;;;;;;;7.38;1.77;;;;;;;-148.88;100.00;75503.03;5053890;28;20052;-75
2023/04/11 02:17:52;;;;;;;4.30;1.58;;;;;;;-148.88;100.00;75480.69;5054136;28;20025;-75
2023/04/11 02:20:20;;;;;;;4.47;1.52;;;;;;;-148.88;100.00;75470.53;5053542;28;20021;-75
2023/04/11 02:22:46;;;;;;;5.63;1.83;;;;;;;-148.88;100.00;75484.75;5053766;28;20021;-75
2023/04/11 02:25:11;;;;;;;5.28;2.28;;;;;;;-148.88;100.00;75460.38;5053451;28;20032;-75
2023/04/11 02:27:37;;;;;;;4.72;1.98;;;;;;;-148.88;100.00;75484.75;5053802;28;20075;-75
2023/04/11 02:30:04;;;;;;;4.28;2.15;;;;;;;-148.88;100.00;75488.81;5052141;28;20033;-75
2023/04/11 02:32:35;;;;;;;3.90;1.75;;;;;;;-148.88;100.00;75480.69;5051969;28;20020;-76
2023/04/11 02:35:01;;;;;;;7.88;2.50;;;;;;;-148.88;100.00;75444.13;5052067;28;20053;-75
2023/04/11 02:37:26;;;;;;;7.70;2.45;;;;;;;-148.88;100.00;75468.50;5053158;28;20057;-75
2023/04/11 02:39:54;;;;;;;10.05;2.38;;;;;;;-148.88;100.00;75480.69;5053216;28;20028;-75
2023/04/11 02:42:19;;;;;;;6.45;2.03;;;;;;;-148.88;100.00;75476.63;5053147;28;20025;-76
2023/04/11 02:44:44;;;;;;;5.93;2.47;;;;;;;-148.88;100.00;75574.13;5053186;28;20106;-75
2023/04/11 02:47:10;;;;;;;6.70;2.42;;;;;;;-148.88;100.00;75596.44;5053076;28;20051;-75
2023/04/11 02:49:35;;;;;;;6.95;2.45;;;;;;;-148.88;100.00;75578.19;5051944;28;20474;-75
2023/04/11 02:52:00;;;;;;;6.18;2.45;;;;;;;-148.88;100.00;75580.22;5051778;28;20032;-74
2023/04/11 02:54:29;;;;;;;9.27;2.65;;;;;;;-148.88;100.00;75570.03;5053126;28;20025;-75
2023/04/11 02:56:55;;;;;;;8.23;2.75;;;;;;;-148.88;100.00;75561.94;5051283;28;20033;-75
2023/04/11 02:59:20;;;;;;;14.15;2.80;;;;;;;-148.88;100.00;75586.31;5053307;28;20025;-75
2023/04/11 03:01:46;;;;;;;10.77;4.45;;;;;;;-148.88;100.00;75570.03;5053049;28;20028;-76
2023/04/11 03:04:11;;;;;;;5.75;2.45;;;;;;;-148.88;100.00;75570.03;5053384;28;20438;-75
2023/04/11 03:06:38;;;;;;;5.82;2.80;;;;;;;-148.88;100.00;75574.13;5051980;28;20112;-75
2023/04/11 03:09:03;;;;;;;12.13;5.05;;;;;;;-148.88;100.00;75574.13;5051747;28;20060;-75
2023/04/11 03:11:29;;;;;;;11.57;3.00;;;;;;;-148.88;100.00;75551.78;5053149;28;20048;-75
2023/04/11 03:13:54;;;;;;;10.93;3.20;;;;;;;-148.88;100.00;75555.84;5053225;28;20455;-75
2023/04/11 03:16:19;;;;;;;8.93;2.67;;;;;;;-148.88;100.00;75533.50;5053393;28;20052;-75
2023/04/11 03:18:45;;;;;;;7.00;3.13;;;;;;;-148.88;100.00;75529.44;5053076;28;20478;-75
2023/04/11 03:21:10;;;;;;;5.03;2.70;;;;;;;-148.88;100.00;75513.19;5051613;28;20120;-75
2023/04/11 03:23:38;;;;;;;5.15;2.88;;;;;;;-148.88;100.00;75557.88;5052760;28;20029;-75
2023/04/11 03:26:07;;;;;;;11.27;3.15;;;;;;;-148.88;100.00;75551.78;5053150;28;20073;-75
2023/04/11 03:28:32;;;;;;;6.25;2.97;;;;;;;-148.88;100.00;75539.59;5052820;28;20082;-75
2023/04/11 03:30:58;;;;;;;8.68;3.03;;;;;;;-148.88;100.00;75545.69;5052901;28;20025;-75
2023/04/11 03:33:23;;;;;;;12.35;3.05;;;;;;;-148.88;100.00;75566.00;5052735;28;20017;-75
2023/04/11 03:35:49;;;;;;;9.70;2.75;;;;;;;-148.88;100.00;75547.72;5052718;28;20049;-75
2023/04/11 03:38:14;;;;;;;10.23;3.15;;;;;;;-148.88;100.00;75570.03;5052517;28;20025;-75
2023/04/11 03:40:39;;;;;;;6.22;3.08;;;;;;;-148.88;100.00;75633.00;5052639;28;20060;-75
2023/04/11 03:43:05;;;;;;;9.95;2.83;;;;;;;-148.88;100.00;75641.13;5051365;28;20052;-75
2023/04/11 03:45:30;;;;;;;14.38;5.22;;;;;;;-148.88;100.00;75641.13;5052519;28;20017;-75
2023/04/11 03:47:55;;;;;;;8.65;3.00;;;;;;;-148.88;100.00;75651.28;5052562;28;20032;-75
2023/04/11 03:50:21;;;;;;;6.68;2.88;;;;;;;-148.88;100.00;75649.25;5052802;28;20474;-75
2023/04/11 03:52:46;;;;;;;10.20;3.22;;;;;;;-148.88;100.00;75649.25;5051116;28;20024;-75
2023/04/11 03:55:11;;;;;;;8.80;3.10;;;;;;;-148.88;100.00;75667.53;5052297;28;20108;-75
2023/04/11 03:57:36;;;;;;;7.40;3.00;;;;;;;-148.88;100.00;75677.69;5052443;28;20052;-76
2023/04/11 04:00:04;;;;;;;9.68;3.05;;;;;;;-148.88;100.00;75677.69;5051197;28;20025;-75
2023/04/11 04:02:30;;;;;;;8.90;2.55;;;;;;;-148.88;100.00;75675.66;5052363;28;20092;-75
2023/04/11 04:04:57;;;;;;;15.15;3.47;;;;;;;-148.88;100.00;75693.94;5052722;28;20418;-75
2023/04/11 04:07:23;;;;;;;14.30;2.97;;;;;;;-148.88;100.00;75689.88;5052341;28;20053;-75
2023/04/11 04:09:49;;;;;;;9.82;2.97;;;;;;;-148.88;100.00;75695.97;5054215;28;20031;-75
2023/04/11 04:12:16;;;;;;;12.68;3.17;;;;;;;-148.88;100.00;75687.84;5055938;28;20110;-75
2023/04/11 04:14:42;;;;;;;13.23;5.65;;;;;;;-148.88;100.00;75700.03;5055993;28;20025;-75
2023/04/11 04:17:07;;;;;;;7.80;3.33;;;;;;;-148.88;100.00;75698.00;5054584;28;20025;-75
2023/04/11 04:19:33;;;;;;;14.93;4.32;;;;;;;-148.88;100.00;75712.22;5055773;28;20024;-75
2023/04/11 04:21:58;;;;;;;17.17;5.65;;;;;;;-148.88;100.00;75698.00;5055842;28;20425;-75
2023/04/11 04:24:28;;;;;;;10.38;3.10;;;;;;;-148.88;100.00;75706.13;5055747;28;20029;-75
2023/04/11 04:26:56;;;;;;;8.02;2.85;;;;;;;-148.88;100.00;75695.97;5054372;28;20017;-76
2023/04/11 04:29:22;;;;;;;22.13;3.95;;;;;;;-148.88;100.00;75704.09;5054462;28;20029;-76
2023/04/11 04:31:49;;;;;;;19.30;6.00;;;;;;;-148.88;100.00;75712.22;5054314;28;20055;-76
2023/04/11 04:34:20;;;;;;;8.30;3.30;;;;;;;-148.88;100.00;75722.38;5054368;28;20120;-75
2023/04/11 04:36:46;;;;;;;12.88;3.22;;;;;;;-148.88;100.00;75716.28;5055739;28;20017;-76
2023/04/11 04:39:16;;;;;;;13.13;3.50;;;;;;;-148.88;100.00;75710.19;5055444;28;20031;-75
2023/04/11 04:41:47;;;;;;;13.35;3.60;;;;;;;-148.88;100.00;75716.28;5054514;28;20020;-75
2023/04/11 04:44:14;;;;;;;17.52;3.80;;;;;;;-148.88;100.00;75716.28;5054121;28;20033;-76
2023/04/11 04:46:40;;;;;;;15.27;3.53;;;;;;;-148.88;100.00;75712.22;5055298;28;20389;-76
2023/04/11 04:49:06;;;;;;;14.00;4.47;;;;;;;-148.88;100.00;75728.47;5055538;28;20529;-75
2023/04/11 04:51:32;;;;;;;14.88;4.00;;;;;;;-148.88;100.00;75744.72;5055339;28;20033;-75
2023/04/11 04:53:58;;;;;;;13.40;3.53;;;;;;;-148.88;100.00;75744.72;5055222;28;20082;-75
2023/04/11 04:56:27;;;;;;;17.67;4.28;;;;;;;-148.88;100.00;75742.69;5053673;28;20029;-75
2023/04/11 04:58:53;;;;;;;10.15;3.25;;;;;;;-148.88;100.00;75744.72;5053794;28;20123;-75
2023/04/11 05:01:19;;;;;;;12.43;4.10;;;;;;;-148.88;100.00;75746.75;5055055;28;20100;-75
2023/04/11 05:03:45;;;;;;;13.65;3.25;;;;;;;-148.88;100.00;75732.53;5053682;28;20025;-75
2023/04/11 05:06:11;;;;;;;16.67;3.55;;;;;;;-148.88;100.00;75728.47;5055182;28;20021;-76
2023/04/11 05:08:36;;;;;;;9.60;3.05;;;;;;;-148.88;100.00;75728.47;5055176;28;20425;-74
2023/04/11 05:11:01;;;;;;;16.45;4.25;;;;;;;-148.88;100.00;75740.66;5055090;28;20029;-75
2023/04/11 05:13:26;;;;;;;11.60;3.67;;;;;;;-148.88;100.00;75756.91;5054893;28;20021;-75
2023/04/11 05:15:53;;;;;;;14.73;4.43;;;;;;;-148.88;100.00;75760.97;5053562;28;20433;-76
2023/04/11 05:18:18;;;;;;;18.55;4.13;;;;;;;-148.88;100.00;75763.00;5054775;28;20028;-76
2023/04/11 05:20:43;;;;;;;12.32;4.63;;;;;;;-148.88;100.00;75785.34;5054501;28;20024;-76
2023/04/11 05:23:08;;;;;;;14.52;3.95;;;;;;;-148.88;100.00;75836.13;5054712;28;20028;-77
2023/04/11 05:25:34;;;;;;;9.82;2.00;;;;;;;-148.88;100.00;75868.63;5053762;28;20475;-77
2023/04/11 05:27:59;;;;;;;10.80;2.38;;;;;;;-148.88;100.00;75931.59;5053402;28;20028;-76
2023/04/11 05:30:28;;;;;;;5.50;2.30;;;;;;;-148.88;100.00;75913.31;5053756;28;20507;-77
2023/04/11 05:32:53;;;;;;;13.82;2.10;;;;;;;-148.88;100.00;75927.53;5055375;28;20032;-77
2023/04/11 05:35:18;;;;;;;8.77;2.20;;;;;;;-148.88;100.00;75927.53;5054810;28;20029;-77
2023/04/11 05:37:44;;;;;;;8.63;2.00;;;;;;;-148.88;100.00;75943.78;5053489;28;20386;-78
2023/04/11 05:40:10;;;;;;;10.07;1.45;;;;;;;-148.88;100.00;75964.09;5055064;28;20071;-77
2023/04/11 05:42:35;;;;;;;4.25;1.10;;;;;;;-148.88;100.00;75964.09;5053508;28;20492;-77
2023/04/11 05:45:00;;;;;;;3.97;0.90;;;;;;;-148.88;100.00;75958.00;5054912;28;20029;-77
2023/04/11 05:47:26;;;;;;;2.13;0.73;;;;;;;-148.88;100.00;75960.03;5053854;28;20024;-77
2023/04/11 05:49:51;;;;;;;3.47;0.82;;;;;;;-148.88;100.00;75960.03;5054798;28;20112;-77
2023/04/11 05:52:16;;;;;;;3.53;0.82;;;;;;;-148.88;100.00;75947.84;5054484;28;20092;-77
2023/04/11 05:54:42;;;;;;;7.00;1.30;;;;;;;-148.88;100.00;75962.06;5054646;28;20121;-77
2023/04/11 05:57:07;;;;;;;5.75;1.58;;;;;;;-148.88;100.00;75960.03;5052767;28;20115;-76
2023/04/11 05:59:33;;;;;;;5.85;1.13;;;;;;;-148.88;100.00;75968.16;5052887;28;20024;-77
2023/04/11 06:01:59;;;;;;;5.10;1.33;;;;;;;-148.88;100.00;75968.16;5052765;28;20024;-77
2023/04/11 06:04:24;;;;;;;6.28;1.40;;;;;;;-148.88;100.00;75974.25;5052875;28;20025;-77
2023/04/11 06:06:50;;;;;;;7.68;1.52;;;;;;;-148.88;100.00;75976.28;5054153;28;20486;-77
2023/04/11 06:09:16;;;;;;;9.43;2.83;;;;;;;-148.88;100.00;75980.34;5054705;28;20029;-77
2023/04/11 06:11:42;;;;;;;6.22;1.70;;;;;;;-148.88;100.00;75976.28;5052467;28;20032;-76
2023/04/11 06:14:07;;;;;;;3.20;1.40;;;;;;;-148.88;100.00;75982.38;5052466;28;20023;-76
2023/04/11 06:16:35;;;;;;;4.57;1.42;;;;;;;-148.88;100.00;75982.38;5053837;28;20020;-76
2023/04/11 06:19:01;;;;;;;5.63;1.48;;;;;;;-148.88;100.00;75976.28;5053953;28;20029;-76
2023/04/11 06:21:26;;;;;;;9.43;1.67;;;;;;;-148.88;100.00;75988.47;5053757;28;20029;-76
2023/04/11 06:23:52;;;;;;;6.45;1.58;;;;;;;-148.88;100.00;75984.41;5052476;28;20112;-77
2023/04/11 06:26:17;;;;;;;10.35;1.80;;;;;;;-148.88;100.00;75988.47;5053651;28;20025;-77
2023/04/11 06:28:42;;;;;;;7.65;1.80;;;;;;;-148.88;100.00;75980.34;5053613;28;20025;-77
2023/04/11 06:31:08;;;;;;;6.80;1.75;;;;;;;-148.88;100.00;75988.47;5053555;28;20091;-77
2023/04/11 06:33:33;;;;;;;5.68;1.70;;;;;;;-148.88;100.00;75980.34;5051849;28;20021;-76
2023/04/11 06:35:59;;;;;;;3.03;1.48;;;;;;;-148.88;100.00;75984.41;5053498;28;20107;-76
2023/04/11 06:38:24;;;;;;;4.25;1.38;;;;;;;-148.88;100.00;75972.22;5053276;28;20027;-76
2023/04/11 06:40:51;;;;;;;5.20;1.60;;;;;;;-148.88;100.00;75978.31;5054207;28;20035;-78
2023/04/11 06:43:16;;;;;;;8.73;1.92;;;;;;;-148.88;100.00;75980.34;5060894;28;20103;-78
2023/04/11 06:45:41;;;;;;;6.47;1.38;;;;;;;-148.88;100.00;75970.19;5059804;28;20500;-79
2023/04/11 06:48:07;;;;;;;8.93;1.60;;;;;;;-148.88;100.00;75960.03;5058171;28;20025;-79
2023/04/11 06:50:32;;;;;;;3.80;1.40;;;;;;;-148.88;100.00;75976.28;5059090;28;20114;-79
2023/04/11 06:52:57;;;;;;;6.53;1.52;;;;;;;-148.88;100.00;75964.09;5051959;28;20024;-76
2023/04/11 06:55:23;;;;;;;5.97;1.00;;;;;;;-148.88;100.00;75970.19;5053329;28;20111;-77
2023/04/11 06:57:48;;;;;;;1.65;0.80;;;;;;;-148.88;100.00;75960.03;5053348;28;20348;-76
2023/04/11 07:00:15;;;;;;;2.60;0.80;;;;;;;-148.88;100.00;75988.47;5051842;28;20031;-76
2023/04/11 07:02:40;;;;;;;6.43;0.90;;;;;;;-148.88;100.00;75960.03;5052978;28;20032;-77
2023/04/11 07:05:08;;;;;;;5.75;0.90;;;;;;;-148.88;100.00;75964.09;5053428;28;20025;-77
2023/04/11 07:07:33;;;;;;;2.58;1.00;;;;;;;-148.88;100.00;75958.00;5053301;28;20024;-77
2023/04/11 07:09:58;;;;;;;2.22;1.00;;;;;;;-148.88;100.00;75960.03;5051773;28;20023;-77
2023/04/11 07:12:24;;;;;;;5.13;0.90;;;;;;;-148.88;100.00;75947.84;5053194;28;20410;-77
2023/04/11 07:14:49;;;;;;;2.17;1.05;;;;;;;-148.88;100.00;75958.00;5053351;28;20028;-77
2023/04/11 07:17:14;;;;;;;3.40;1.10;;;;;;;-148.88;100.00;75951.91;5053123;28;20048;-76
2023/04/11 07:19:42;;;;;;;5.03;1.02;;;;;;;-148.88;100.00;75949.88;5054280;28;20025;-77
2023/04/11 07:22:07;;;;;;;5.50;1.15;;;;;;;-148.88;100.00;75933.63;5052907;28;20356;-77
2023/04/11 07:24:32;;;;;;;3.35;1.10;;;;;;;-148.88;100.00;75937.69;5053219;28;20455;-77
2023/04/11 07:27:00;;;;;;;5.32;1.70;;;;;;;-148.88;100.00;75945.81;5053090;28;20021;-77
2023/04/11 07:29:25;;;;;;;5.32;1.30;;;;;;;-148.88;100.00;75947.84;5053163;28;20055;-77
2023/04/11 07:31:51;;;;;;;7.47;2.80;;;;;;;-148.88;100.00;75951.91;5052933;28;20394;-77
2023/04/11 07:34:17;;;;;;;10.82;2.00;;;;;;;-148.88;100.00;75964.09;5051761;28;20079;-77
2023/04/11 07:36:42;;;;;;;4.50;1.60;;;;;;;-148.88;100.00;75964.09;5051837;28;20033;-77
2023/04/11 07:39:11;;;;;;;5.53;2.03;;;;;;;-148.88;100.00;75972.22;5052986;28;20115;-77
2023/04/11 07:41:36;;;;;;;6.00;2.00;;;;;;;-148.88;100.00;75958.00;5052855;28;20494;-77
2023/04/11 07:44:03;;;;;;;5.40;2.20;;;;;;;-148.88;100.00;75927.53;5055143;28;20048;-77
2023/04/11 07:46:28;;;;;;;9.15;1.73;;;;;;;-148.88;100.00;75939.72;5055920;28;20111;-77
2023/04/11 07:48:54;;;;;;;5.63;1.77;;;;;;;-148.88;100.00;75919.41;5057387;28;20103;-77
2023/04/11 07:51:19;;;;;;;4.95;1.95;;;;;;;-148.88;100.00;75919.41;5056013;28;20431;-77
2023/04/11 07:53:45;;;;;;;5.13;1.42;;;;;;;-148.88;100.00;75907.22;5058007;28;20021;-77
2023/04/11 07:56:11;;;;;;;8.57;2.38;;;;;;;-148.88;100.00;75895.03;5056383;28;20052;-77
2023/04/11 07:58:36;;;;;;;5.28;1.75;;;;;;;-148.88;100.00;75866.59;5056349;28;20037;-77
2023/04/11 08:01:02;;;;;;;5.13;2.65;;;;;;;-148.88;100.00;75832.06;5054973;28;20144;-77
2023/04/11 08:03:27;;;;;;;8.18;2.30;;;;;;;-148.88;100.00;75830.03;5056285;28;20447;-77
2023/04/11 08:05:52;;;;;;;13.30;2.80;;;;;;;-148.88;100.00;75838.16;5054957;28;20036;-76
2023/04/11 08:08:18;;;;;;;4.22;1.60;;;;;;;-148.88;100.00;75825.97;5056433;28;20020;-77
2023/04/11 08:10:43;;;;;;;4.72;1.50;;;;;;;-148.88;100.00;75834.09;5056075;28;20538;-77
2023/04/11 08:13:08;;;;;;;3.33;1.50;;;;;;;-148.88;100.00;75840.19;5056444;28;20067;-77
2023/04/11 08:15:35;;;;;;;5.47;1.35;;;;;;;-148.88;100.00;75819.88;5056558;28;20029;-77
2023/04/11 08:18:01;;;;;;;3.90;1.52;;;;;;;-148.88;99.50;75850.34;5056226;28;20029;-77
2023/04/11 08:20:26;;;;;;;5.15;1.58;;;;;;;-148.88;98.78;75840.19;5055789;28;20025;-76
2023/04/11 08:22:51;;;;;;;4.60;1.85;;;;;;;-148.88;98.26;75856.44;5054650;28;20075;-77
2023/04/11 08:25:21;;;;;;;5.22;1.58;;;;;;;-148.88;99.74;75838.16;5055795;28;20018;-77
2023/04/11 08:27:47;;;;;;;12.77;2.78;;;;;;;-148.88;100.00;75842.22;5056654;28;20017;-77
2023/04/11 08:30:13;;;;;;;9.48;2.78;;;;;;;-148.88;98.91;75842.22;5056033;28;20029;-76
2023/04/11 08:32:39;;;;;;;8.80;1.75;;;;;;;-148.88;97.49;75817.84;5055736;28;20066;-76
2023/04/11 08:35:05;;;;;;;8.63;2.20;;;;;;;-148.88;96.00;75789.41;5055686;28;20036;-77
2023/04/11 08:37:31;;;;;;;6.18;1.42;;;;;;;-148.88;95.30;75791.44;5055526;28;20021;-77
2023/04/11 08:39:56;;;;;;;5.38;1.83;;;;;;;-148.88;95.11;75769.09;5055497;28;20572;-77
2023/04/11 08:42:23;;;;;;;5.80;1.58;;;;;;;-148.88;93.30;75765.03;5055998;28;20028;-77
2023/04/11 08:44:52;;;;;;;6.57;1.35;;;;;;;-148.88;89.97;75771.13;5055516;28;20029;-77
2023/04/11 08:47:18;;;;;;;4.93;0.93;;;;;;;-148.88;89.87;75763.00;5055645;28;20028;-78
2023/04/11 08:49:43;;;;;;;6.57;2.20;;;;;;;-148.88;90.79;75744.72;5055552;28;20021;-77
2023/04/11 08:52:09;;;;;;;7.60;1.50;;;;;;;-148.88;89.56;75726.44;5055292;28;20096;-77
2023/04/11 08:54:34;;;;;;;4.93;1.67;;;;;;;-148.88;88.30;75720.34;5055555;28;20470;-78
2023/04/11 08:56:59;;;;;;;3.97;1.20;;;;;;;-148.88;86.53;75720.34;5055181;28;20112;-77
2023/04/11 08:59:26;;;;;;;2.05;0.80;;;;;;;-148.88;82.88;75714.25;5056196;28;20048;-77
2023/04/11 09:01:51;;;;;;;6.03;1.25;;;;;;;-148.88;79.72;75710.19;5056715;28;20029;-78
2023/04/11 09:04:16;;;;;;;2.42;0.88;;;;;;;-148.88;79.14;75691.91;5056597;28;20390;-76
2023/04/11 09:06:55;;;;;;;4.18;1.35;;;;;;;-148.88;78.38;75695.97;5054594;28;20025;-77
2023/04/11 09:09:30;;;;;;;3.63;0.90;;;;;;;-148.88;76.36;75691.91;5054403;28;20028;-78
2023/04/11 09:11:55;;;;;;;3.60;0.95;;;;;;;-148.88;77.75;75647.22;5055332;28;20020;-77
2023/04/11 09:14:28;;;;;;;5.40;1.20;;;;;;;-148.88;74.58;75653.31;5054677;28;20334;-78
2023/04/11 09:16:56;;;;;;;3.92;1.00;;;;;;;-148.88;72.70;75675.66;5055963;28;20435;-78
2023/04/11 09:19:23;;;;;;;4.47;1.23;;;;;;;-148.88;71.73;75665.50;5056273;28;20032;-78
2023/04/11 09:21:49;;;;;;;4.63;1.42;;;;;;;-148.88;71.02;75637.06;5056187;28;20047;-78
2023/04/11 09:24:15;;;;;;;5.82;1.00;;;;;;;-148.88;69.58;75604.56;5054284;28;20104;-78
2023/04/11 09:26:41;;;;;;;6.32;0.93;;;;;;;-148.88;72.30;75630.97;5055797;28;20036;-78
2023/04/11 09:29:06;;;;;;;3.80;0.80;;;;;;;-148.88;70.91;75630.97;5055431;28;20025;-78
2023/04/11 09:31:42;;;;;;;8.45;1.70;;;;;;;-148.88;72.90;75643.16;5054030;28;20032;-77
2023/04/11 09:34:08;;;;;;;5.88;1.33;;;;;;;-148.88;71.59;75657.38;5054843;28;20043;-78
2023/04/11 09:36:34;;;;;;;4.07;1.30;;;;;;;-148.88;71.30;75661.44;5054116;28;20501;-78
2023/04/11 09:39:03;;;;;;;3.90;1.00;;;;;;;-148.88;69.12;75586.31;5056104;28;20112;-78
2023/04/11 09:41:33;;;;;;;6.07;1.33;;;;;;;-148.88;67.49;75557.88;5053765;28;20025;-78
2023/04/11 09:43:59;;;;;;;5.15;1.98;;;;;;;-148.88;67.34;75598.47;5053602;28;20029;-77
2023/04/11 09:46:25;;;;;;;5.88;1.27;;;;;;;-148.88;71.34;75610.66;5055017;28;20055;-78
2023/04/11 09:48:52;;;;;;;5.20;1.55;;;;;;;-148.88;68.49;75541.63;5053535;28;20072;-78
2023/04/11 09:51:18;;;;;;;8.77;1.08;;;;;;;-148.88;70.55;75588.34;5054898;28;20021;-78
2023/04/11 09:53:44;;;;;;;4.78;1.42;;;;;;;-148.88;67.20;75535.53;5055180;28;20036;-78
2023/04/11 09:56:10;;;;;;;6.18;1.30;;;;;;;-148.88;66.02;75501.00;5053485;28;20028;-78
2023/04/11 09:58:36;;;;;;;7.55;1.48;;;;;;;-148.88;68.91;75529.44;5054509;28;20147;-78
2023/04/11 10:01:06;;;;;;;5.35;1.40;;;;;;;-148.88;69.18;75602.53;5054467;28;20582;-77
2023/04/11 10:03:37;;;;;;;5.78;1.60;;;;;;;-148.88;69.81;75651.28;5054131;28;20040;-77
2023/04/11 10:06:07;;;;;;;6.85;1.50;;;;;;;-148.88;72.35;75671.59;5053999;28;20028;-78
2023/04/11 10:08:35;;;;;;;8.40;1.35;;;;;;;-148.88;72.44;75630.97;5053451;28;20024;-78
2023/04/11 10:11:03;;;;;;;4.70;1.50;;;;;;;-148.88;70.53;75667.53;5055660;28;20025;-78
2023/04/11 10:13:45;;;;;;;8.27;1.40;;;;;;;-148.88;71.30;75687.84;5056579;28;20451;-77
2023/04/11 10:16:14;;;;;;;5.00;1.02;;;;;;;-148.88;71.23;75708.16;5067178;22;20049;-80
2023/04/11 10:19:03;;;;;;;7.30;0.95;;;;;;;-148.88;71.10;75637.06;5054618;28;20036;-77
2023/04/11 10:21:35;;;;;;;3.50;1.25;;;;;;;-148.88;67.06;75561.94;5053424;28;20096;-77
2023/04/11 10:24:13;;;;;;;4.50;0.73;;;;;;;-148.88;64.22;75559.91;5053613;28;20025;-77
2023/04/11 10:27:00;;;;;;;6.05;1.15;;;;;;;-148.88;61.49;75566.00;5053618;28;20115;-77
2023/04/11 10:29:39;;;;;;;8.80;1.67;;;;;;;-148.88;61.33;75517.25;5053409;28;20107;-76
2023/04/11 10:32:23;;;;;;;4.05;1.20;;;;;;;-148.88;58.57;75547.72;5076692;22;20073;-85
2023/04/11 10:34:48;;;;;;;6.68;1.33;;;;;;;-148.88;60.27;75584.25;5054546;28;20070;-85
2023/04/11 10:37:13;;;;;;;5.63;1.60;;;;;;;-148.88;62.45;75539.59;5054397;28;20084;-85
2023/04/11 10:39:54;;;;;;;5.25;1.13;;;;;;;-148.88;63.28;75509.13;5053046;28;20670;-84
2023/04/11 10:42:37;;;;;;;7.72;0.80;;;;;;;-148.88;64.41;75566.00;5033493;28;20103;-85
2023/04/11 10:45:18;;;;;;;4.35;1.10;;;;;;;-148.88;64.85;75592.38;5032720;28;20488;-84
2023/04/11 10:47:56;;;;;;;4.97;1.67;;;;;;;-148.88;62.03;75492.88;5033739;28;20029;-85
2023/04/11 10:50:30;;;;;;;4.60;1.25;;;;;;;-148.88;58.13;75456.31;5035542;28;20048;-83
2023/04/11 10:52:57;;;;;;;6.95;1.48;;;;;;;-148.88;58.77;75490.84;5035794;28;20022;-84
2023/04/11 10:55:25;;;;;;;4.95;1.80;;;;;;;-148.88;57.36;75547.72;5036385;28;20108;-84
2023/04/11 10:58:06;;;;;;;4.63;1.73;;;;;;;-148.88;59.44;75576.13;5037080;28;20025;-84
2023/04/11 11:00:48;;;;;;;4.90;1.50;;;;;;;-148.88;57.43;75541.63;5037096;28;20036;-84
2023/04/11 11:03:24;;;;;;;4.53;1.30;;;;;;;-148.88;60.13;75557.88;5036437;28;20032;-84
2023/04/11 11:05:59;;;;;;;5.80;1.55;;;;;;;-148.88;58.26;75547.72;5037448;28;20029;-84
2023/04/11 11:08:36;;;;;;;7.28;1.50;;;;;;;-148.88;57.84;75517.25;5033677;28;20033;-84